Date,TemperatureHighF,TemperatureAvgF,TemperatureLowF,DewpointHighF,DewpointAvgF,DewpointLowF,HumidityHigh,HumidityAvg,HumidityLow,PressureMaxIn,PressureMinIn,WindSpeedMaxMPH,WindSpeedAvgMPH,GustSpeedMaxMPH,PrecipitationSumIn
2013-1-1,49,39,31,38,34,28,94,82,62,30.20,30.12,14,1,14,0.00
2013-1-2,53,38,27,40,33,26,96,83,60,30.17,30.06,11,1,11,0.00
2013-1-3,52,38,27,42,34,26,95,85,64,30.19,30.08,8,1,8,0.01
2013-1-4,54,42,31,41,36,30,97,81,58,30.20,30.10,10,1,10,0.00
2013-1-5,52,42,32,46,39,30,96,89,75,30.18,29.97,12,0,12,0.08
2013-1-6,46,42,34,44,41,34,97,96,95,30.11,29.97,7,0,7,0.31
2013-1-7,56,41,31,48,38,30,98,91,62,30.19,30.07,5,0,5,0.00
2013-1-8,58,44,34,48,40,34,98,87,61,30.16,30.05,11,1,11,0.01
2013-1-9,52,43,36,48,40,35,97,88,71,30.07,29.88,19,2,19,0.00
2013-1-10,50,42,37,36,33,30,87,71,48,30.09,29.98,9,2,9,0.00
2013-1-11,50,40,29,40,33,27,93,78,55,30.17,30.03,11,1,11,0.00
2013-1-12,47,39,29,35,28,23,93,66,41,30.17,30.05,9,1,9,0.01
2013-1-13,47,36,24,27,21,14,92,59,33,30.19,30.09,9,1,9,0.00
2013-1-14,47,38,30,25,19,14,80,48,31,30.34,30.14,13,1,13,0.00
2013-1-15,50,38,26,31,27,22,88,67,41,30.40,30.31,10,1,10,0.00
2013-1-16,53,41,31,36,32,26,90,71,48,30.36,30.18,11,1,11,0.00
2013-1-17,57,46,34,38,35,31,90,66,45,30.19,30.07,13,2,13,0.00
2013-1-18,60,45,31,39,34,28,96,69,38,30.16,30.06,11,1,11,0.00
2013-1-19,58,44,30,42,35,26,91,73,51,30.18,30.09,12,1,12,0.00
2013-1-20,59,43,30,41,33,27,92,72,37,30.15,30.05,12,1,12,0.00
2013-1-21,58,44,30,43,37,27,92,76,55,30.10,30.01,9,1,9,0.00
2013-1-22,60,48,33,45,40,30,95,76,55,30.05,29.93,11,1,11,0.00
2013-1-23,53,48,43,49,44,40,94,89,76,30.01,29.87,7,0,7,0.05
2013-1-24,53,50,48,50,49,47,98,94,89,30.10,29.98,10,1,10,0.68
2013-1-25,64,54,49,60,53,48,98,94,80,30.10,29.94,8,1,8,0.12
2013-1-26,56,49,45,51,44,39,98,85,56,29.97,29.89,17,4,17,0.01
2013-1-27,56,46,38,41,37,29,92,74,39,30.07,29.97,9,2,9,0.00
2013-1-28,57,46,35,42,38,32,93,77,46,30.20,30.06,10,1,10,0.00
2013-1-29,59,46,37,45,40,35,95,82,57,30.26,30.17,9,1,9,0.00
2013-1-30,63,52,39,42,39,35,90,64,40,30.27,30.17,13,1,13,0.00
2013-1-31,62,47,34,48,41,32,94,79,58,30.21,30.09,12,1,12,0.00
2013-2-1,62,51,40,50,45,38,95,81,63,30.12,30.04,11,1,11,0.00
2013-2-2,61,49,40,51,45,38,96,86,67,30.19,30.11,6,0,6,0.00
2013-2-3,62,49,39,48,44,37,96,84,62,30.16,30.03,9,1,9,0.00
2013-2-4,65,48,34,51,42,32,97,84,49,30.09,29.96,5,0,5,0.01
2013-2-5,54,49,45,47,44,42,95,85,71,30.05,29.97,15,4,15,0.00
2013-2-6,60,47,36,45,41,35,96,81,48,30.10,30.02,11,1,11,0.00
2013-2-7,54,44,34,45,38,32,94,80,48,30.09,29.90,15,2,15,0.02
2013-2-8,53,42,33,41,38,31,95,85,57,29.93,29.85,12,1,12,0.02
2013-2-9,56,43,30,32,29,24,95,62,30,30.01,29.90,14,1,14,0.00
2013-2-10,59,42,28,39,33,26,92,72,42,30.04,29.93,11,1,11,0.00
2013-2-11,60,45,31,35,31,28,93,64,31,30.15,29.98,10,1,10,0.00
2013-2-12,59,44,31,40,34,27,91,71,42,30.27,30.15,9,1,9,0.00
2013-2-13,64,47,32,44,37,30,94,72,36,30.26,30.12,10,0,10,0.00
2013-2-14,65,50,36,44,40,33,94,71,43,30.17,30.08,12,1,12,0.00
2013-2-15,67,52,37,49,42,34,93,71,46,30.19,30.13,10,1,10,0.00
2013-2-16,66,50,37,49,42,35,92,77,48,30.15,29.96,8,1,8,0.00
2013-2-17,65,50,38,46,40,36,96,74,36,29.98,29.86,10,1,10,0.00
2013-2-18,51,45,36,43,39,33,95,82,67,29.94,29.87,17,4,17,0.00
2013-2-19,49,43,38,41,38,34,93,82,69,29.88,29.65,20,3,20,0.45
2013-2-20,59,44,31,42,36,29,95,76,39,29.97,29.74,12,2,12,0.00
2013-2-21,60,45,35,40,36,30,95,73,34,30.08,29.96,13,1,13,0.00
2013-2-22,63,47,32,44,37,30,95,72,37,30.17,30.08,14,2,14,0.00
2013-2-23,59,50,40,46,36,26,93,63,30,30.16,30.05,14,3,14,0.00
2013-2-24,60,49,36,32,27,23,77,45,26,30.17,30.07,14,2,14,0.00
2013-2-25,64,47,32,45,36,28,89,68,42,30.19,30.07,10,1,10,0.00
2013-2-26,67,50,34,35,28,20,93,51,19,30.13,30.03,15,2,15,0.00
2013-2-27,69,51,32,43,35,29,88,59,28,30.27,30.12,7,1,7,0.00
2013-2-28,69,53,39,53,45,37,93,77,52,30.35,30.26,11,1,11,0.00
2013-3-1,70,56,40,51,46,39,97,74,49,30.34,30.15,11,1,11,0.00
2013-3-2,71,58,45,56,49,42,92,73,57,30.15,29.95,9,1,9,0.00
2013-3-3,64,55,48,50,47,44,90,75,48,30.00,29.92,19,3,19,0.00
2013-3-4,62,50,43,50,44,40,90,81,62,30.05,29.94,13,2,13,0.00
2013-3-5,62,51,39,44,40,36,94,69,40,29.97,29.74,22,4,22,0.00
2013-3-6,56,50,42,45,41,37,88,71,52,29.98,29.74,23,4,23,0.05
2013-3-7,57,46,36,45,39,34,94,78,47,29.90,29.76,10,1,10,0.08
2013-3-8,60,49,41,45,43,37,97,80,45,29.97,29.73,21,4,21,0.09
2013-3-9,68,52,38,44,40,28,94,67,24,30.21,29.96,16,2,16,0.00
2013-3-10,68,52,36,41,36,28,92,60,24,30.25,30.15,15,1,15,0.00
2013-3-11,75,55,37,48,41,34,92,65,33,30.17,30.00,9,1,9,0.00
2013-3-12,75,57,40,50,45,38,93,68,38,30.06,29.96,9,1,9,0.00
2013-3-13,77,60,43,56,50,41,94,71,46,30.07,29.96,11,1,11,0.00
2013-3-14,77,60,47,58,50,42,94,71,41,30.06,29.98,12,1,12,0.00
2013-3-15,73,57,43,55,45,40,90,67,42,30.02,29.93,11,1,11,0.00
2013-3-16,73,56,45,52,47,40,96,74,35,30.01,29.91,17,2,17,0.00
2013-3-17,71,54,39,47,42,37,93,67,30,30.05,29.93,15,1,15,0.00
2013-3-18,68,54,39,48,42,37,94,69,40,30.03,29.92,11,1,11,0.00
2013-3-19,73,56,44,48,43,37,91,67,36,30.04,29.96,17,1,17,0.07
2013-3-20,67,56,50,55,51,46,96,83,52,30.01,29.97,15,2,15,0.05
2013-3-21,57,50,44,44,43,41,88,76,60,29.95,29.91,8,0,8,0.00
2013-3-22,67,54,41,41,24,13,91,39,13,30.02,29.92,19,3,19,0.00
2013-3-23,70,54,42,39,30,23,73,41,22,30.06,29.93,9,1,9,0.00
2013-3-24,74,55,38,47,40,34,88,60,32,29.99,29.85,11,1,11,0.00
2013-3-25,64,51,40,47,43,37,93,75,49,29.92,29.83,13,2,13,0.00
2013-3-26,71,56,46,50,45,43,88,70,44,29.91,29.81,14,2,14,0.00
2013-3-27,68,56,45,53,48,42,90,75,54,29.91,29.84,17,3,17,0.00
2013-3-28,71,60,52,54,52,49,90,75,53,29.97,29.90,8,1,8,0.00
2013-3-29,75,63,51,55,51,48,90,68,47,29.99,29.89,11,2,11,0.00
2013-3-30,73,61,55,56,52,48,93,75,44,29.95,29.85,15,2,15,0.12
2013-3-31,69,58,50,55,52,47,96,80,49,29.97,29.88,9,1,15,0.08
2013-4-1,66,57,49,55,52,46,96,82,61,30.05,29.94,5,1,10,0.10
2013-4-2,72,57,42,55,49,41,96,78,51,30.08,29.97,5,1,10,0.00
2013-4-3,76,59,46,55,50,44,96,74,46,30.04,29.86,5,1,10,0.00
2013-4-4,67,58,51,57,52,47,93,82,63,30.01,29.87,7,2,14,0.15
2013-4-5,65,58,51,54,50,49,93,78,60,30.08,30.01,7,3,14,0.00
2013-4-6,66,58,52,54,51,49,88,78,63,30.09,30.02,7,3,15,0.00
2013-4-7,64,56,50,54,49,46,94,80,62,30.07,29.73,9,4,15,0.25
2013-4-8,51,48,46,50,43,38,94,82,76,29.77,29.69,12,7,20,0.00
2013-4-10,86,62,54,52,52,49,86,71,28,29.96,29.92,6,4,9,0.00
2013-4-11,74,59,49,51,48,44,93,70,43,29.94,29.74,6,3,9,0.00
2013-4-12,79,59,42,49,44,40,94,65,30,29.82,29.71,7,2,10,0.00
2013-4-13,70,55,44,51,45,42,92,72,50,29.80,29.72,11,4,15,0.00
2013-4-14,68,54,42,46,43,37,92,69,34,29.83,29.74,10,4,13,0.00
2013-4-15,58,50,45,48,41,35,94,73,44,29.85,29.74,12,6,19,0.01
2013-4-16,66,53,38,39,30,15,90,49,14,30.04,29.85,8,2,13,0.00
2013-4-17,68,58,47,31,27,21,52,33,19,30.16,30.05,8,3,14,0.00
2013-4-18,75,58,40,42,35,28,76,46,21,30.18,30.07,6,2,11,0.00
2013-4-19,83,64,43,50,44,39,87,53,25,30.13,29.95,6,2,9,0.00
2013-4-20,82,65,49,49,44,38,88,52,21,30.00,29.86,6,2,8,0.00
2013-4-21,87,68,47,48,42,31,84,47,15,29.94,29.81,7,1,10,0.00
2013-4-22,87,71,53,48,41,28,78,41,13,29.87,29.72,5,2,8,0.00
2013-4-23,83,70,55,47,31,22,72,28,13,29.84,29.72,6,3,12,0.00
2013-4-24,77,60,45,52,45,38,87,63,27,29.83,29.70,7,2,14,0.00
2013-4-25,69,58,51,52,49,47,91,74,53,30.03,29.83,8,4,14,0.00
2013-4-26,78,59,51,53,49,47,86,72,41,30.11,30.02,5,3,8,0.00
2013-4-30,84,78,71,34,22,12,20,13,8,29.74,29.67,7,4,11,0.00
2013-5-1,84,72,62,37,26,12,33,19,11,29.96,29.74,7,3,15,0.00
2013-5-2,91,74,55,38,31,18,51,23,11,30.06,29.94,6,2,10,0.00
2013-5-3,91,72,50,43,36,24,67,32,10,29.97,29.68,6,1,12,0.00
2013-5-4,90,72,54,47,39,30,66,36,13,29.68,29.41,7,3,13,0.00
2013-5-5,71,61,52,50,48,45,77,62,47,29.69,29.47,7,3,12,0.00
2013-5-6,68,61,57,58,51,48,87,71,49,29.86,29.69,3,1,8,0.17
2013-5-7,73,62,52,54,50,47,92,68,44,29.93,29.85,7,2,11,0.00
2013-5-8,68,59,51,53,50,48,92,74,49,30.04,29.92,8,3,14,0.00
2013-5-9,72,59,52,54,50,48,89,75,53,30.07,29.97,7,4,10,0.00
2013-5-10,79,61,51,59,52,48,93,74,47,30.08,29.97,7,3,10,0.00
2013-5-11,93,71,50,59,52,46,94,57,23,30.04,29.91,6,2,8,0.00
2013-5-12,86,70,52,57,50,44,85,52,26,30.01,29.90,7,3,12,0.00
2013-5-13,85,67,52,56,51,45,86,59,35,29.97,29.83,7,2,15,0.00
2013-5-14,78,64,52,55,49,44,89,63,34,29.90,29.81,8,3,12,0.00
2013-5-15,69,57,51,50,46,40,85,68,37,29.95,29.89,11,5,18,0.00
2013-5-16,69,58,53,56,51,45,92,78,52,29.94,29.86,10,5,16,0.05
2013-5-17,69,58,51,49,46,42,85,66,38,29.98,29.87,8,5,13,0.00
2013-5-18,76,60,47,52,48,42,87,67,40,30.03,29.96,8,4,12,0.00
2013-5-19,85,66,49,51,46,35,93,57,19,30.02,29.85,6,2,10,0.00
2013-5-20,90,71,51,48,40,30,76,40,13,29.90,29.80,8,2,14,0.00
2013-5-21,68,58,50,50,46,36,84,66,32,29.87,29.79,12,6,18,0.00
2013-5-22,68,54,41,44,37,19,90,58,18,29.91,29.80,9,3,13,0.00
2013-5-23,70,56,48,45,43,41,83,64,38,29.90,29.82,8,4,16,0.00
2013-5-24,73,56,42,46,42,35,88,63,26,29.90,29.84,9,3,14,0.00
2013-5-25,68,56,46,49,45,42,88,69,45,29.95,29.86,11,6,18,0.00
2013-5-26,70,59,52,54,51,48,91,75,49,30.03,29.94,9,6,17,0.00
2013-5-27,64,58,52,56,52,48,89,80,68,30.03,29.89,7,4,12,0.00
2013-5-28,71,62,56,57,54,48,93,76,44,29.90,29.80,7,4,13,0.01
2013-5-29,71,61,53,56,51,48,85,72,52,29.86,29.79,8,4,13,0.00
2013-5-30,79,62,48,50,47,39,92,63,26,29.88,29.82,9,3,14,0.00
2013-5-31,91,69,48,49,45,34,87,50,13,29.91,29.78,6,2,12,0.00
2013-6-1,95,76,54,52,48,42,76,41,17,29.81,29.64,6,2,9,0.00
2013-6-2,88,71,55,55,52,49,81,54,30,29.66,29.53,6,2,13,0.00
2013-6-3,82,66,52,56,52,48,87,64,38,29.72,29.59,8,3,10,0.00
2013-6-4,76,62,53,56,52,50,90,72,48,29.84,29.72,8,4,12,0.00
2013-6-5,78,63,54,56,52,50,88,71,45,29.88,29.78,6,4,12,0.00
2013-6-6,86,66,53,59,54,49,90,68,38,29.84,29.71,6,2,10,0.00
2013-6-7,102,75,54,63,57,51,91,59,25,29.76,29.59,5,2,8,0.00
2013-6-8,106,82,63,62,58,56,79,48,21,29.64,29.53,7,2,13,0.00
2013-6-9,77,65,58,59,56,53,84,71,53,29.75,29.64,9,5,16,0.00
2013-6-10,74,63,57,55,53,50,85,70,48,29.83,29.69,8,4,18,0.00
2013-6-11,82,65,55,58,54,51,87,69,43,29.86,29.77,6,2,13,0.00
2013-6-12,81,65,53,54,48,41,86,59,25,29.88,29.78,11,4,16,0.00
2013-6-13,82,65,50,49,46,38,86,55,24,29.97,29.87,6,2,13,0.00
2013-6-14,88,70,51,47,41,36,78,39,17,29.88,29.70,7,2,10,0.00
2013-6-15,80,63,51,54,50,40,89,64,37,29.88,29.70,7,2,12,0.00
2013-6-16,82,64,50,54,50,47,92,64,30,29.97,29.88,9,4,16,0.00
2013-6-17,74,62,52,57,53,48,89,72,45,29.98,29.92,10,5,19,0.00
2013-6-18,68,60,54,53,50,47,91,72,47,29.92,29.86,10,7,17,0.00
2013-6-19,75,62,51,50,48,43,90,65,35,29.94,29.88,8,4,11,0.00
2013-6-20,81,63,50,51,48,41,90,62,29,29.90,29.82,8,3,14,0.00
2013-6-21,85,66,48,51,48,33,91,56,17,29.87,29.79,7,2,13,0.00
2013-6-22,90,69,50,53,48,41,86,53,19,29.82,29.72,8,2,16,0.00
2013-6-23,70,63,56,61,57,53,93,82,70,29.77,29.70,8,5,17,0.00
2013-6-24,69,64,59,62,60,57,93,85,74,29.79,29.67,4,1,7,0.02
2013-6-25,81,70,61,64,62,58,89,76,58,29.86,29.77,9,3,14,0.00
2013-6-26,86,73,62,65,62,58,93,71,47,29.92,29.85,6,2,9,0.00
2013-6-27,94,76,59,62,59,55,91,59,28,29.95,29.87,6,2,11,0.00
2013-6-28,102,83,61,63,56,51,81,44,21,29.91,29.75,9,2,11,0.00
2013-6-29,104,85,64,58,54,50,73,39,18,29.78,29.65,7,2,12,0.00
2013-6-30,99,81,64,60,56,53,73,45,24,29.71,29.61,8,2,10,0.00
2013-7-1,100,82,64,61,55,50,74,44,23,29.70,29.66,6,2,10,0.00
2013-7-2,104,84,68,63,59,56,70,46,24,29.76,29.68,6,2,11,0.00
2013-7-3,101,81,63,63,58,54,82,50,26,29.76,29.62,6,2,11,0.00
2013-7-4,102,84,72,63,58,49,69,44,23,29.64,29.53,8,3,13,0.00
2013-7-5,77,67,56,57,52,46,85,62,42,29.66,29.57,9,5,15,0.00
2013-7-6,84,65,54,57,53,51,89,68,38,29.68,29.59,6,2,11,0.00
2013-7-7,90,69,52,56,52,45,91,61,22,29.73,29.63,6,2,9,0.00
2013-7-8,91,70,55,56,52,43,90,61,20,29.84,29.73,5,2,12,0.00
2013-7-9,101,79,56,57,50,35,87,45,12,29.89,29.78,5,1,9,0.00
2013-7-10,92,73,58,58,52,47,86,54,25,29.84,29.73,7,2,12,0.00
2013-7-11,83,65,55,56,53,51,90,68,37,29.81,29.73,6,3,11,0.00
2013-7-12,86,67,52,56,51,45,92,61,26,29.81,29.74,8,2,13,0.00
2013-7-13,92,73,53,55,49,40,86,49,17,29.82,29.75,6,2,10,0.00
2013-7-14,88,70,55,56,51,44,88,56,22,29.86,29.75,6,2,10,0.00
2013-7-15,60,57,55,54,52,51,90,86,74,29.79,29.75,5,2,10,0.00
2013-7-16,73,66,56,56,54,51,86,66,54,29.87,29.77,9,6,19,0.00
2013-7-17,84,70,54,58,55,52,92,63,38,29.95,29.89,5,2,8,0.00
2013-7-18,77,65,55,53,51,48,93,63,39,29.91,29.81,4,1,7,0.00
2013-7-19,94,72,54,58,54,50,93,59,24,29.82,29.67,6,2,9,0.00
2013-7-20,94,70,56,60,55,52,90,64,25,29.72,29.57,5,2,8,0.00
2013-7-21,92,72,55,58,54,50,90,59,25,29.73,29.61,7,3,12,0.00
2013-7-22,87,71,58,60,56,54,88,63,35,29.82,29.73,6,2,10,0.00
2013-7-23,89,74,64,59,55,45,75,54,28,29.86,29.80,6,2,9,0.00
2013-7-24,95,76,60,58,51,39,83,47,17,29.85,29.75,6,2,10,0.00
2013-7-25,89,74,61,58,53,48,75,50,28,29.88,29.79,7,2,13,0.00
2013-7-26,91,72,57,58,55,51,88,61,32,29.95,29.85,6,3,10,0.00
2013-7-27,89,70,57,60,56,53,92,66,31,29.89,29.71,6,3,14,0.00
2013-7-28,83,67,57,58,56,52,90,70,42,29.75,29.65,7,2,12,0.00
2013-7-29,82,64,53,57,53,50,91,72,40,29.88,29.71,7,2,9,0.00
2013-7-30,85,67,55,58,54,52,91,68,36,29.97,29.88,7,2,9,0.00
2013-7-31,83,66,55,57,53,47,90,67,30,29.95,29.87,7,4,16,0.00
2013-8-1,77,64,53,54,51,48,90,67,38,29.95,29.84,7,3,13,0.00
2013-8-2,86,66,50,55,52,47,93,65,29,29.86,29.76,6,2,9,0.00
2013-8-3,86,67,53,57,53,49,93,66,29,29.86,29.75,5,2,11,0.00
2013-8-4,83,64,55,57,54,52,91,72,38,29.89,29.79,6,3,10,0.00
2013-8-5,82,64,55,58,54,51,90,73,40,29.90,29.80,6,3,11,0.00
2013-8-6,76,63,55,57,54,52,91,75,50,29.91,29.85,6,4,12,0.00
2013-8-7,85,67,53,59,55,51,94,70,33,29.90,29.82,6,2,10,0.00
2013-8-8,86,62,56,53,50,49,84,67,33,29.86,29.81,6,0,12,0.00
2013-8-9,95,64,59,53,51,38,78,64,45,29.83,29.77,6,1,9,0.00
2013-8-10,87,64,62,60,59,49,91,86,72,29.82,29.78,7,2,13,0.00
2013-8-11,87,66,63,63,62,60,92,86,76,29.84,29.78,7,1,10,0.00
2013-8-12,86,81,70,57,52,49,59,36,29,29.86,29.81,6,4,12,0.00
2013-8-13,95,79,52,55,49,35,91,42,14,29.87,29.77,6,2,9,0.00
2013-8-14,87,74,53,58,54,46,88,52,25,29.85,29.78,7,4,13,0.00
2013-8-15,87,76,62,65,62,59,92,64,41,29.84,29.78,7,4,10,0.00
2013-8-16,90,78,60,64,58,48,96,56,34,29.85,29.80,7,4,12,0.00
2013-8-17,84,74,59,59,56,53,85,57,36,29.86,29.74,7,3,13,0.00
2013-8-18,99,82,56,61,57,53,93,49,25,29.77,29.64,3,1,6,0.00
2013-8-19,102,86,64,60,57,49,78,41,21,29.75,29.66,7,3,10,0.00
2013-8-20,90,77,62,61,57,53,83,54,32,29.75,29.66,7,3,13,0.00
2013-8-21,85,71,57,58,56,54,90,63,39,29.81,29.70,6,3,12,0.00
2013-8-22,78,68,56,58,55,53,91,66,46,29.85,29.75,7,4,15,0.00
2013-8-23,81,69,58,58,56,53,86,65,42,29.81,29.69,6,4,9,0.00
2013-8-24,82,70,54,59,56,52,93,64,43,29.77,29.73,8,4,13,0.00
2013-8-25,80,68,63,64,61,58,90,80,59,29.82,29.77,5,3,7,0.00
2013-8-26,82,71,62,60,57,54,85,64,41,29.89,29.77,6,3,9,0.00
2013-8-28,60,60,59,57,57,56,91,91,90,29.74,29.74,3,1,7,0.00
2013-8-29,69,62,61,61,59,59,94,92,76,29.89,29.84,4,3,6,0.00
2013-8-30,94,76,56,62,58,52,95,58,25,29.92,29.78,6,2,10,0.00
2013-8-31,78,65,57,58,56,52,87,73,43,29.85,29.75,5,1,8,0.00
2013-9-1,61,60,60,56,56,56,87,86,85,29.81,29.79,0,0,0,0.00
2013-9-2,83,70,64,63,61,59,90,74,46,29.84,29.76,6,4,0,0.00
2013-9-3,78,68,60,59,56,50,90,68,39,29.87,29.81,7,4,0,0.00
2013-9-4,79,68,60,58,57,54,88,71,43,29.92,29.82,7,5,0,0.00
2013-9-5,80,67,60,58,56,53,87,71,40,29.90,29.83,8,5,0,0.00
2013-9-6,90,71,51,57,51,46,94,57,23,29.88,29.71,4,1,0,0.00
2013-9-7,97,73,54,53,48,43,80,48,17,29.76,29.66,4,1,7,0.00
2013-9-8,99,75,57,56,52,48,80,49,19,29.74,29.61,5,1,9,0.00
2013-9-9,98,77,59,55,51,43,79,45,20,29.68,29.56,8,1,10,0.00
2013-9-10,85,69,60,61,57,52,90,68,38,29.77,29.60,7,2,12,0.00
2013-9-11,77,66,57,59,57,54,91,76,54,29.87,29.76,8,3,11,0.00
2013-9-12,83,68,60,62,59,57,90,76,48,29.86,29.74,7,2,10,0.00
2013-9-13,84,66,58,61,57,54,92,74,43,29.79,29.64,7,3,10,0.00
2013-9-14,74,62,56,59,56,54,92,80,56,29.72,29.62,6,3,10,0.00
2013-9-15,80,65,56,59,56,53,91,75,44,29.76,29.68,7,4,12,0.00
2013-9-16,67,60,58,58,56,54,94,85,69,29.75,29.67,8,4,14,0.00
2013-9-17,72,64,56,56,55,51,86,74,54,29.76,29.71,9,5,0,0.00
2013-9-18,83,66,50,54,48,45,93,60,26,29.81,29.69,5,2,0,0.00
2013-9-19,56,51,48,47,45,44,88,81,69,29.74,29.71,0,0,0,0.00
2013-9-20,73,64,54,60,54,44,86,72,57,29.75,29.65,8,3,0,0.00
2013-9-21,69,62,56,59,56,53,94,82,59,29.79,29.69,7,3,13,0.29
2013-9-22,73,60,54,59,54,52,97,83,50,29.89,29.79,5,1,11,0.00
2013-9-23,83,65,50,59,55,49,96,72,38,29.92,29.80,5,1,8,0.00
2013-9-24,73,63,55,58,54,51,93,75,47,29.88,29.78,9,4,16,0.00
2013-9-25,68,60,52,51,48,44,84,67,42,29.82,29.71,8,4,12,0.00
2013-9-26,75,60,45,46,42,32,93,58,21,29.88,29.72,5,1,12,0.00
2013-9-27,77,62,48,43,39,32,75,46,20,30.00,29.88,4,1,9,0.00
2013-9-28,85,64,45,56,42,30,88,52,15,29.98,29.86,6,1,11,0.00
2013-9-29,77,64,52,59,55,46,92,74,49,30.00,29.92,6,2,9,0.00
2013-9-30,75,65,56,61,58,54,95,79,59,29.96,29.84,6,2,10,0.00
2013-10-1,75,62,53,56,50,46,90,67,37,29.90,29.80,5,2,10,0.00
2013-10-2,77,60,47,50,47,43,92,66,31,29.90,29.81,6,2,11,0.00
2013-10-3,71,61,46,45,36,28,89,46,21,29.97,29.83,9,4,16,0.00
2013-10-4,78,67,59,37,32,29,42,29,19,30.00,29.87,7,3,12,0.00
2013-10-5,82,65,45,40,34,28,69,35,17,30.10,30.00,4,1,7,0.00
2013-10-6,83,63,44,44,39,34,78,46,19,30.02,29.89,4,1,7,0.00
2013-10-7,85,65,48,42,37,25,78,42,14,29.89,29.75,5,1,10,0.00
2013-10-8,78,62,48,47,42,38,82,52,26,29.79,29.60,5,1,10,0.00
2013-10-9,70,56,46,49,45,42,92,70,41,29.65,29.52,5,1,9,0.00
2013-10-10,74,59,45,49,43,38,86,60,28,29.90,29.65,3,1,4,0.00
2013-10-11,73,56,43,50,46,41,94,72,40,29.97,29.86,4,1,8,0.00
2013-10-12,74,56,41,48,44,39,95,70,37,29.91,29.78,7,2,11,0.00
2013-10-13,73,58,44,49,43,38,94,64,29,29.96,29.82,5,1,9,0.00
2013-10-14,76,58,43,43,40,36,87,55,24,30.03,29.90,4,1,7,0.00
2013-10-15,78,61,44,39,37,34,79,45,22,29.96,29.85,4,1,10,0.00
2013-10-16,81,62,43,44,38,35,80,48,22,30.00,29.90,4,1,8,0.00
2013-10-17,83,61,43,41,38,31,83,49,16,29.98,29.85,4,0,6,0.00
2013-10-18,84,62,43,44,39,36,78,48,21,29.95,29.86,2,0,5,0.00
2013-10-19,82,62,43,45,42,38,87,53,24,29.97,29.88,4,1,8,0.00
2013-10-20,85,61,43,49,42,34,85,55,16,29.91,29.78,4,0,7,0.00
2013-10-21,82,60,42,50,45,39,90,63,27,29.89,29.78,2,0,5,0.00
2013-10-22,82,60,43,52,46,41,94,66,28,29.91,29.79,3,1,6,0.00
2013-10-23,81,57,42,53,47,40,94,73,33,29.86,29.76,4,1,6,0.00
2013-10-24,63,54,48,51,49,46,93,84,63,30.00,29.86,6,2,9,0.00
2013-10-25,78,58,45,53,48,43,94,74,34,30.07,29.96,2,0,5,0.00
2013-10-26,79,59,42,49,45,39,95,64,31,30.05,29.90,3,1,7,0.00
2013-10-27,62,52,43,51,45,38,93,78,61,29.92,29.57,11,5,18,0.00
2013-10-28,53,51,50,47,46,46,88,83,77,29.60,29.57,8,4,11,0.00
2013-11-4,66,57,38,36,30,26,80,38,22,29.96,29.86,7,2,12,0.00
2013-11-5,69,58,45,37,33,28,70,40,27,30.12,29.96,5,1,9,0.00
2013-11-6,69,55,40,41,37,34,82,55,32,30.16,30.07,5,1,11,0.00
2013-11-7,76,57,44,42,39,34,80,55,22,30.08,29.96,3,0,6,0.00
2013-11-8,76,57,41,50,43,36,86,63,33,29.99,29.85,4,0,7,0.00
2013-11-9,73,55,41,50,45,39,96,71,37,29.93,29.86,3,1,6,0.00
2013-11-10,71,53,40,49,44,38,91,73,36,30.01,29.92,3,0,5,0.00
2013-11-11,66,54,42,51,46,41,95,78,52,30.07,29.98,3,0,5,0.00
2013-11-12,74,58,46,50,46,41,82,65,37,30.15,30.05,4,0,6,0.00
2013-11-13,78,57,42,49,43,39,90,65,31,30.15,29.99,3,0,5,0.00
2013-11-14,71,53,42,53,47,40,94,81,51,30.01,29.77,5,1,9,0.00
2013-11-15,66,52,41,48,41,35,96,71,33,29.78,29.62,4,1,10,0.00
2013-11-16,62,50,39,49,43,35,95,78,49,29.84,29.68,7,2,11,0.00
2013-11-17,64,51,41,49,45,39,95,81,55,29.99,29.83,2,0,4,0.00
2013-11-18,59,49,39,47,43,37,96,83,59,30.05,29.97,6,1,8,0.00
2013-11-19,63,54,45,54,49,43,95,85,64,30.01,29.85,5,1,8,0.27
2013-11-20,62,55,51,58,54,50,97,96,87,29.85,29.74,3,0,5,0.74
2013-11-21,58,52,45,51,37,24,97,61,30,29.88,29.79,9,4,18,0.21
2013-11-22,67,53,43,39,26,17,76,38,18,29.94,29.81,8,3,16,0.00
2013-11-23,62,48,37,41,37,33,89,69,41,30.01,29.87,4,0,5,0.00
2013-11-24,63,47,34,45,39,33,95,78,45,30.16,30.01,3,0,5,0.00
2013-11-25,61,46,35,46,40,34,96,81,54,30.24,30.16,4,1,7,0.00
2013-11-26,59,48,39,45,42,37,95,79,56,30.19,29.95,5,1,11,0.00
2013-11-27,59,50,40,48,44,38,96,83,67,29.95,29.76,4,1,6,0.00
2013-11-28,67,52,42,46,42,39,92,71,42,29.99,29.78,3,0,5,0.00
2013-11-29,68,50,37,47,41,35,95,76,43,30.13,29.99,3,0,4,0.00
2013-11-30,66,49,37,48,41,35,95,76,46,30.17,30.09,3,0,6,0.00
2013-12-1,68,51,38,46,41,36,95,73,40,30.25,30.12,4,1,6,0.00
2013-12-2,66,50,37,51,44,36,94,82,49,30.14,29.85,9,2,10,0.00
2013-12-3,54,47,33,52,37,25,95,69,44,29.85,29.74,10,3,18,0.00
2013-12-4,48,38,26,26,19,14,77,47,28,29.99,29.84,4,1,9,0.00
2013-12-5,49,35,24,20,18,14,76,52,29,30.09,29.99,3,0,5,0.00
2013-12-6,51,39,24,44,29,18,91,69,42,30.10,29.81,8,2,11,0.13
2013-12-7,47,41,29,44,32,23,94,72,42,30.15,29.82,7,2,13,0.28
2013-12-8,42,33,27,28,24,21,94,71,46,30.24,30.13,4,1,8,0.00
2013-12-9,44,35,26,28,22,16,89,61,43,30.33,30.23,5,1,9,0.00
2013-12-10,48,37,25,30,27,22,90,70,46,30.32,30.11,4,1,10,0.00
2013-12-11,51,38,28,33,29,24,89,72,47,30.17,30.10,6,1,8,0.00
2013-12-12,58,40,27,36,31,24,90,72,40,30.19,30.08,4,0,5,0.00
2013-12-13,59,41,28,37,30,26,94,68,34,30.25,30.14,3,0,5,0.00
2013-12-14,56,41,30,38,32,27,92,75,47,30.31,30.22,5,1,9,0.00
2013-12-15,59,45,31,40,35,29,92,70,47,30.29,30.15,6,1,8,0.00
2013-12-16,64,52,40,40,37,33,80,59,38,30.16,30.03,5,2,8,0.00
2013-12-17,62,47,36,42,37,32,88,70,46,30.09,29.94,3,0,6,0.00
2013-12-18,64,51,41,46,41,36,88,72,37,29.95,29.66,7,2,11,0.00
2013-12-19,58,49,37,44,31,18,94,56,28,29.84,29.62,8,3,15,0.00
2013-12-20,60,48,39,24,15,8,55,28,14,29.92,29.83,5,2,10,0.00
2013-12-21,65,46,32,40,32,23,83,60,37,30.00,29.87,2,0,4,0.00
2013-12-22,62,47,34,39,35,32,91,67,39,30.20,29.99,3,0,5,0.00
2013-12-23,61,46,34,40,36,31,91,70,46,30.30,30.19,5,1,7,0.00
2013-12-24,67,49,36,43,37,33,92,68,39,30.25,30.12,3,0,7,0.00
2013-12-25,60,48,37,42,38,32,87,70,50,30.20,30.11,5,1,9,0.00
2013-12-26,63,46,34,44,37,31,90,74,45,30.17,30.08,5,1,9,0.00
2013-12-27,60,45,33,43,37,30,92,77,52,30.16,30.03,3,0,4,0.00
2013-12-28,66,47,31,37,26,-100,93,53,26,30.06,29.94,4,-28,7,0.00
2013-12-29,61,51,37,36,28,20,78,44,25,30.08,30.01,5,1,8,0.00
2013-12-30,64,42,32,39,20,-100,88,58,37,30.16,30.08,3,-105,7,0.00
2013-12-31,61,42,33,40,20,-100,89,58,38,30.18,30.06,5,-98,6,0.00
2014-1-1,64,43,32,34,16,-100,85,49,28,30.13,30.03,4,-109,6,0.00
2014-1-2,63,44,35,38,20,-100,76,51,37,30.10,29.97,5,-109,8,0.00